createdAt,value
2022-09-06T00:02:20.515Z,23.32
2022-09-06T00:04:49.180Z,23.31
2022-09-06T00:07:17.021Z,23.30
2022-09-06T00:09:46.156Z,23.28
2022-09-06T00:12:14.183Z,23.25
2022-09-06T00:14:42.155Z,23.24
2022-09-06T00:17:10.286Z,23.22
2022-09-06T00:19:38.054Z,23.20
2022-09-06T00:22:05.965Z,23.19
2022-09-06T00:24:34.006Z,23.18
2022-09-06T00:27:03.218Z,23.17
2022-09-06T00:29:31.341Z,23.13
2022-09-06T00:31:59.375Z,23.13
2022-09-06T00:34:27.384Z,23.12
2022-09-06T00:36:55.660Z,23.10
2022-09-06T00:39:23.545Z,23.08
2022-09-06T00:41:51.794Z,23.07
2022-09-06T00:44:20.968Z,23.06
2022-09-06T00:46:51.979Z,23.04
2022-09-06T00:49:24.368Z,23.05
2022-09-06T00:51:54.559Z,22.99
2022-09-06T00:54:22.712Z,22.98
2022-09-06T00:56:51.595Z,22.94
2022-09-06T00:59:21.107Z,22.81
2022-09-06T01:01:49.188Z,22.91
2022-09-06T01:04:17.382Z,22.88
2022-09-06T01:06:58.609Z,22.87
2022-09-06T01:09:40.967Z,22.84
2022-09-06T01:12:22.497Z,22.82
2022-09-06T01:15:05.944Z,22.80
2022-09-06T01:17:45.664Z,22.78
2022-09-06T01:20:32.354Z,22.74
2022-09-06T01:23:28.622Z,22.72
2022-09-06T01:26:04.773Z,22.75
2022-09-06T01:28:35.082Z,22.77
2022-09-06T01:31:17.712Z,22.74
2022-09-06T01:33:52.949Z,22.68
2022-09-06T01:36:25.300Z,22.64
2022-09-06T01:38:53.384Z,22.58
2022-09-06T01:41:21.249Z,22.55
2022-09-06T01:43:52.771Z,22.52
2022-09-06T01:46:32.446Z,22.47
2022-09-06T01:49:25.130Z,22.48
2022-09-06T01:52:03.511Z,22.44
2022-09-06T01:54:45.852Z,22.44
2022-09-06T01:57:26.883Z,22.43
2022-09-06T02:00:06.896Z,22.41
2022-09-06T02:02:48.654Z,22.38
2022-09-06T02:05:23.867Z,22.36
2022-09-06T02:07:57.200Z,22.35
2022-09-06T02:10:29.508Z,22.33
2022-09-06T02:13:01.215Z,22.32
2022-09-06T02:15:33.608Z,22.32
2022-09-06T02:18:06.831Z,22.30
2022-09-06T02:20:38.872Z,22.25
2022-09-06T02:23:09.685Z,22.30
2022-09-06T02:25:40.414Z,22.28
2022-09-06T02:28:10.192Z,22.28
2022-09-06T02:30:44.088Z,22.27
2022-09-06T02:33:17.575Z,22.27
2022-09-06T02:35:47.219Z,22.25
2022-09-06T02:38:15.605Z,22.25
2022-09-06T02:40:44.545Z,22.24
2022-09-06T02:43:12.713Z,22.22
2022-09-06T02:45:42.909Z,22.23
2022-09-06T02:48:10.720Z,22.21
2022-09-06T02:50:38.516Z,22.20
2022-09-06T02:53:09.417Z,22.19
2022-09-06T02:55:38.076Z,22.18
2022-09-06T02:58:07.612Z,22.18
2022-09-06T03:00:35.728Z,22.16
2022-09-06T03:03:05.470Z,22.15
2022-09-06T03:05:33.352Z,22.15
2022-09-06T03:08:01.517Z,22.15
2022-09-06T03:10:29.297Z,22.12
2022-09-06T03:12:57.179Z,22.12
2022-09-06T03:15:25.241Z,22.11
2022-09-06T03:17:53.006Z,22.09
2022-09-06T03:20:22.160Z,22.09
2022-09-06T03:22:50.254Z,22.09
2022-09-06T03:25:18.097Z,22.07
2022-09-06T03:27:46.222Z,22.06
2022-09-06T03:30:15.031Z,22.05
2022-09-06T03:32:42.787Z,22.02
2022-09-06T03:35:11.861Z,22.02
2022-09-06T03:37:41.089Z,22.00
2022-09-06T03:40:10.389Z,22.00
2022-09-06T03:42:39.640Z,21.98
2022-09-06T03:45:08.591Z,21.98
2022-09-06T03:47:36.503Z,21.98
2022-09-06T03:50:04.836Z,21.97
2022-09-06T03:52:33.044Z,21.97
2022-09-06T03:55:03.209Z,21.97
2022-09-06T03:57:30.973Z,21.95
2022-09-06T03:59:58.727Z,21.94
2022-09-06T04:02:26.754Z,21.95
2022-09-06T04:04:55.649Z,21.94
2022-09-06T04:07:24.043Z,21.94
2022-09-06T04:09:51.807Z,21.93
2022-09-06T04:12:20.935Z,21.94
2022-09-06T04:14:49.013Z,21.92
2022-09-06T04:17:16.829Z,21.92
2022-09-06T04:19:44.894Z,21.92
2022-09-06T04:22:12.737Z,21.90
2022-09-06T04:24:40.543Z,21.91
2022-09-06T04:27:08.542Z,21.89
2022-09-06T04:29:37.715Z,21.89
2022-09-06T04:32:05.594Z,21.87
2022-09-06T04:34:34.428Z,21.88
2022-09-06T04:37:02.243Z,21.89
2022-09-06T04:39:30.096Z,21.88
2022-09-06T04:41:58.140Z,21.86
2022-09-06T04:44:25.941Z,21.87
2022-09-06T04:47:09.362Z,21.88
2022-09-06T04:49:37.520Z,21.87
2022-09-06T04:52:05.831Z,21.87
2022-09-06T04:54:33.629Z,21.86
2022-09-06T04:57:01.463Z,21.87
2022-09-06T04:59:29.635Z,21.86
2022-09-06T05:01:58.791Z,21.83
2022-09-06T05:04:26.647Z,21.85
2022-09-06T05:07:02.151Z,21.85
2022-09-06T05:09:30.757Z,21.83
2022-09-06T05:11:58.567Z,21.83
2022-09-06T05:14:26.737Z,21.82
2022-09-06T05:16:55.404Z,21.82
2022-09-06T05:19:24.886Z,21.83
2022-09-06T05:21:53.209Z,21.82
2022-09-06T05:24:21.044Z,21.82
2022-09-06T05:26:49.153Z,21.82
2022-09-06T05:29:16.971Z,21.81
2022-09-06T05:31:45.146Z,21.68
2022-09-06T05:34:13.507Z,21.82
2022-09-06T05:36:42.753Z,21.82
2022-09-06T05:39:10.765Z,21.83
2022-09-06T05:41:38.607Z,21.82
2022-09-06T05:44:06.725Z,21.81
2022-09-06T05:46:42.280Z,21.81
2022-09-06T05:49:10.734Z,21.81
2022-09-06T05:51:38.591Z,21.83
2022-09-06T05:54:08.835Z,21.87
2022-09-06T05:56:36.774Z,21.91
2022-09-06T05:59:05.666Z,21.95
2022-09-06T06:01:33.586Z,21.99
2022-09-06T06:04:03.509Z,22.07
2022-09-06T06:06:32.864Z,22.12
2022-09-06T06:09:01.659Z,22.18
2022-09-06T06:11:32.010Z,22.22
2022-09-06T06:14:00.000Z,22.25
2022-09-06T06:16:28.166Z,22.29
2022-09-06T06:18:56.111Z,22.30
2022-09-06T06:21:25.966Z,22.34
2022-09-06T06:23:55.711Z,22.37
2022-09-06T06:26:24.363Z,22.39
2022-09-06T06:28:54.026Z,22.42
2022-09-06T06:31:25.235Z,22.46
2022-09-06T06:33:53.073Z,22.49
2022-09-06T06:36:22.772Z,22.50
2022-09-06T06:38:52.581Z,22.52
2022-09-06T06:41:23.925Z,22.53
2022-09-06T06:43:54.700Z,22.58
2022-09-06T06:46:24.341Z,22.61
2022-09-06T06:48:55.329Z,22.59
2022-09-06T06:51:26.030Z,22.67
2022-09-06T06:53:54.139Z,22.70
2022-09-06T06:56:24.263Z,22.77
2022-09-06T06:58:56.555Z,22.82
2022-09-06T07:01:26.255Z,22.87
2022-09-06T07:03:54.572Z,22.93
2022-09-06T07:09:11.497Z,23.11
2022-09-06T07:11:39.683Z,23.20
2022-09-06T07:14:08.950Z,23.30
2022-09-06T07:16:36.869Z,23.39
2022-09-06T07:19:05.228Z,23.49
2022-09-06T07:24:08.695Z,23.69
2022-09-06T07:26:39.403Z,23.82
2022-09-06T07:29:09.864Z,23.92
2022-09-06T07:34:28.234Z,24.14
2022-09-06T07:36:56.905Z,24.22
2022-09-06T07:39:25.362Z,24.28
2022-09-06T07:41:53.800Z,24.39
2022-09-06T07:44:23.475Z,24.48
2022-09-06T07:46:52.678Z,24.58
2022-09-06T07:49:21.233Z,24.67
2022-09-06T07:51:49.714Z,24.75
2022-09-06T07:54:33.057Z,24.85
2022-09-06T07:57:01.282Z,24.96
2022-09-06T07:59:30.781Z,25.06
2022-09-06T08:01:59.149Z,25.13
2022-09-06T08:04:27.213Z,25.24
2022-09-06T08:09:45.843Z,25.43
2022-09-06T08:12:14.136Z,25.52
2022-09-06T08:14:43.882Z,25.59
2022-09-06T08:17:12.086Z,25.65
2022-09-06T08:19:40.248Z,25.72
2022-09-06T08:22:08.722Z,25.78
2022-09-06T08:24:37.027Z,25.87
2022-09-06T08:27:07.875Z,25.93
2022-09-06T08:29:36.117Z,26.01
2022-09-06T08:32:05.820Z,26.08
2022-09-06T08:34:34.034Z,26.14
2022-09-06T08:37:02.162Z,26.20
2022-09-06T08:39:30.172Z,26.27
2022-09-06T08:42:03.812Z,26.32
2022-09-06T08:47:27.084Z,26.45
2022-09-06T08:50:02.312Z,26.52
2022-09-06T08:53:06.577Z,26.59
2022-09-06T08:55:41.326Z,26.66
2022-09-06T08:58:34.973Z,26.73
2022-09-06T09:01:05.910Z,26.82
2022-09-06T09:03:38.111Z,26.90
2022-09-06T09:06:10.131Z,26.97
2022-09-06T09:08:48.289Z,27.05
2022-09-06T09:11:19.818Z,27.12
2022-09-06T09:13:55.862Z,27.21
2022-09-06T09:16:25.159Z,27.27
2022-09-06T09:18:58.292Z,27.35
2022-09-06T09:21:32.351Z,27.41
2022-09-06T09:24:04.520Z,27.46
2022-09-06T09:26:37.565Z,27.54
2022-09-06T09:29:08.083Z,27.61
2022-09-06T09:31:38.460Z,27.66
2022-09-06T09:34:13.191Z,27.75
2022-09-06T09:39:37.224Z,27.84
2022-09-06T09:42:05.933Z,27.85
2022-09-06T09:44:34.713Z,27.90
2022-09-06T09:47:23.276Z,27.94
2022-09-06T09:49:52.888Z,27.97
2022-09-06T09:52:27.210Z,28.02
2022-09-06T09:54:58.276Z,28.07
2022-09-06T09:57:26.365Z,28.09
2022-09-06T09:59:57.504Z,28.13
2022-09-06T10:02:28.523Z,28.20
2022-09-06T10:05:03.845Z,28.29
2022-09-06T10:07:33.778Z,28.32
2022-09-06T10:10:05.524Z,28.36
2022-09-06T10:12:35.381Z,28.41
2022-09-06T10:15:06.943Z,28.45
2022-09-06T10:17:37.267Z,28.48
2022-09-06T10:20:10.147Z,28.54
2022-09-06T10:22:52.725Z,28.57
2022-09-06T10:25:49.117Z,28.61
2022-09-06T10:28:34.603Z,28.63
2022-09-06T10:31:17.134Z,28.68
2022-09-06T10:33:58.940Z,28.71
2022-09-06T10:36:34.103Z,28.74
2022-09-06T10:39:04.330Z,28.77
2022-09-06T10:42:02.306Z,28.81
2022-09-06T10:44:46.842Z,28.84
2022-09-06T10:47:16.524Z,28.86
2022-09-06T10:49:47.417Z,28.89
2022-09-06T10:52:20.974Z,28.96
2022-09-06T10:54:49.463Z,29.01
2022-09-06T11:00:13.565Z,29.14
2022-09-06T11:02:47.259Z,29.24
2022-09-06T11:11:09.080Z,29.41
2022-09-06T11:13:36.864Z,29.45
2022-09-06T11:16:09.696Z,29.53
2022-09-06T11:18:44.846Z,29.60
2022-09-06T11:21:31.546Z,29.66
2022-09-06T11:24:12.211Z,29.77
2022-09-06T11:26:45.571Z,29.84
2022-09-06T11:29:20.959Z,29.90
2022-09-06T11:34:54.326Z,30.00
2022-09-06T11:37:27.341Z,30.05
2022-09-06T11:43:12.161Z,30.17
2022-09-06T11:45:42.607Z,30.20
2022-09-06T11:48:35.152Z,30.25
2022-09-06T11:51:10.680Z,30.30
2022-09-06T11:54:10.213Z,30.35
2022-09-06T11:56:44.338Z,30.40
2022-09-06T11:59:28.729Z,30.45
2022-09-06T12:02:03.880Z,30.50
2022-09-06T12:04:50.299Z,30.55
2022-09-06T12:07:18.133Z,30.58
2022-09-06T12:09:46.441Z,30.62
2022-09-06T12:12:42.438Z,30.66
2022-09-06T12:15:26.123Z,30.70
2022-09-06T12:17:54.176Z,30.71
2022-09-06T12:21:02.235Z,30.74
2022-09-06T12:23:44.361Z,30.77
2022-09-06T12:26:13.379Z,30.77
2022-09-06T12:28:49.761Z,30.78
2022-09-06T12:31:26.437Z,30.81
2022-09-06T12:33:56.014Z,30.80
2022-09-06T12:36:29.752Z,30.77
2022-09-06T12:39:00.557Z,30.81
2022-09-06T12:41:30.786Z,30.72
2022-09-06T12:44:03.189Z,30.82
2022-09-06T12:46:32.372Z,30.82
2022-09-06T12:49:01.883Z,30.83
2022-09-06T12:51:29.754Z,30.83
2022-09-06T12:54:00.130Z,30.83
2022-09-06T12:56:30.220Z,30.86
2022-09-06T12:59:20.122Z,30.89
2022-09-06T13:01:54.125Z,30.85
2022-09-06T13:04:28.865Z,30.87
2022-09-06T13:06:58.485Z,30.86
2022-09-06T13:09:29.983Z,30.85
2022-09-06T13:12:05.505Z,30.85
2022-09-06T13:14:36.277Z,30.83
2022-09-06T13:17:04.068Z,30.82
2022-09-06T13:19:34.989Z,30.81
2022-09-06T13:22:05.437Z,30.84
2022-09-06T13:24:47.143Z,30.89
2022-09-06T13:27:25.998Z,30.91
2022-09-06T13:30:00.204Z,30.92
2022-09-06T13:32:28.836Z,30.92
2022-09-06T13:35:00.117Z,30.94
2022-09-06T13:37:31.375Z,30.94
2022-09-06T13:40:00.289Z,30.93
2022-09-06T13:42:30.620Z,30.94
2022-09-06T13:45:02.327Z,30.98
2022-09-06T13:47:31.207Z,30.98
2022-09-06T13:49:59.105Z,31.00
2022-09-06T13:52:27.226Z,30.99
2022-09-06T13:54:55.184Z,31.00
2022-09-06T13:57:24.669Z,31.00
2022-09-06T13:59:52.761Z,31.01
2022-09-06T14:02:22.054Z,31.01
2022-09-06T14:04:50.185Z,31.01
2022-09-06T14:07:18.352Z,31.02
2022-09-06T14:09:47.573Z,31.02
2022-09-06T14:12:15.477Z,31.01
2022-09-06T14:14:44.611Z,31.03
2022-09-06T14:17:12.636Z,31.03
2022-09-06T14:19:42.794Z,31.04
2022-09-06T14:22:10.906Z,31.02
2022-09-06T14:24:39.258Z,31.00
2022-09-06T14:27:08.679Z,30.97
2022-09-06T14:29:37.141Z,30.96
2022-09-06T14:32:05.232Z,30.93
2022-09-06T14:34:33.092Z,30.93
2022-09-06T14:37:02.441Z,30.91
2022-09-06T14:39:30.708Z,30.88
2022-09-06T14:41:58.690Z,30.85
2022-09-06T14:44:27.135Z,30.83
2022-09-06T14:46:55.447Z,30.82
2022-09-06T14:49:23.540Z,30.79
2022-09-06T14:51:53.642Z,30.77
2022-09-06T14:54:27.277Z,30.72
2022-09-06T14:56:57.230Z,30.68
2022-09-06T14:59:25.220Z,30.65
2022-09-06T15:01:53.200Z,30.61
2022-09-06T15:04:21.833Z,30.57
2022-09-06T15:06:49.835Z,30.53
2022-09-06T15:09:19.425Z,30.48
2022-09-06T15:11:50.689Z,30.44
2022-09-06T15:14:21.109Z,30.36
2022-09-06T15:16:54.919Z,30.36
2022-09-06T15:19:25.063Z,30.32
2022-09-06T15:21:53.107Z,30.27
2022-09-06T15:24:21.918Z,30.21
2022-09-06T15:26:51.532Z,30.17
2022-09-06T15:29:20.446Z,30.13
2022-09-06T15:31:50.721Z,30.07
2022-09-06T15:34:19.912Z,30.03
2022-09-06T15:36:48.044Z,29.99
2022-09-06T15:39:16.508Z,29.94
2022-09-06T15:41:44.551Z,29.89
2022-09-06T15:44:15.906Z,29.87
2022-09-06T15:46:47.477Z,29.81
2022-09-06T15:49:17.394Z,29.78
2022-09-06T15:51:46.183Z,29.73
2022-09-06T15:54:16.032Z,29.72
2022-09-06T15:56:43.258Z,29.69
2022-09-06T15:59:11.858Z,29.66
2022-09-06T16:01:41.499Z,29.65
2022-09-06T16:04:09.310Z,29.64
2022-09-06T16:06:42.209Z,29.64
2022-09-06T16:09:11.423Z,29.64
2022-09-06T16:11:39.213Z,29.65
2022-09-06T16:14:08.495Z,29.64
2022-09-06T16:16:36.729Z,29.66
2022-09-06T16:19:05.943Z,29.67
2022-09-06T16:21:36.126Z,29.68
2022-09-06T16:24:05.730Z,29.68
2022-09-06T16:26:35.167Z,29.70
2022-09-06T16:29:04.650Z,29.71
2022-09-06T16:31:39.112Z,29.73
2022-09-06T16:34:09.160Z,29.76
2022-09-06T16:36:37.229Z,29.77
2022-09-06T16:39:05.773Z,29.76
2022-09-06T16:41:39.003Z,29.80
2022-09-06T16:44:06.943Z,29.82
2022-09-06T16:46:34.803Z,29.82
2022-09-06T16:49:04.477Z,29.85
2022-09-06T16:51:33.807Z,29.86
2022-09-06T16:54:02.692Z,29.87
2022-09-06T16:56:34.737Z,29.89
2022-09-06T16:59:05.332Z,29.88
2022-09-06T17:01:34.350Z,29.87
2022-09-06T17:04:03.110Z,29.85
2022-09-06T17:06:32.544Z,29.82
2022-09-06T17:09:01.740Z,29.80
2022-09-06T17:11:30.582Z,29.77
2022-09-06T17:13:58.809Z,29.73
2022-09-06T17:16:46.465Z,29.70
2022-09-06T17:19:14.936Z,29.63
2022-09-06T17:21:43.630Z,29.61
2022-09-06T17:24:12.825Z,29.53
2022-09-06T17:26:41.367Z,29.48
2022-09-06T17:29:09.580Z,29.43
2022-09-06T17:31:38.367Z,29.39
2022-09-06T17:34:07.698Z,29.34
2022-09-06T17:36:36.456Z,29.28
2022-09-06T17:39:06.310Z,29.22
2022-09-06T17:41:37.823Z,29.18
2022-09-06T17:44:07.011Z,29.13
2022-09-06T17:46:36.309Z,29.08
2022-09-06T17:49:05.931Z,29.04
2022-09-06T17:51:34.513Z,28.99
2022-09-06T17:54:02.392Z,28.94
2022-09-06T17:56:30.601Z,28.89
2022-09-06T17:59:01.804Z,28.86
2022-09-06T18:01:32.067Z,28.81
2022-09-06T18:04:00.993Z,28.77
2022-09-06T18:06:30.993Z,28.73
2022-09-06T18:09:03.408Z,28.69
2022-09-06T18:11:33.387Z,28.62
2022-09-06T18:14:05.129Z,28.61
2022-09-06T18:16:34.999Z,28.55
2022-09-06T18:19:04.555Z,28.49
2022-09-06T18:21:36.213Z,28.47
2022-09-06T18:24:05.018Z,28.41
2022-09-06T18:26:32.904Z,28.35
2022-09-06T18:29:02.339Z,28.32
2022-09-06T18:31:30.269Z,28.27
2022-09-06T18:33:58.925Z,28.21
2022-09-06T18:36:31.781Z,28.16
2022-09-06T18:39:02.804Z,28.10
2022-09-06T18:41:47.956Z,28.07
2022-09-06T18:44:17.896Z,28.03
2022-09-06T18:46:45.784Z,27.97
2022-09-06T18:49:15.021Z,27.90
2022-09-06T18:51:44.607Z,27.85
2022-09-06T18:54:12.641Z,27.81
2022-09-06T18:56:40.536Z,27.76
2022-09-06T18:59:08.583Z,27.72
2022-09-06T19:01:37.996Z,27.69
2022-09-06T19:04:07.120Z,27.64
2022-09-06T19:06:36.325Z,27.61
2022-09-06T19:09:07.044Z,27.57
2022-09-06T19:11:35.314Z,27.53
2022-09-06T19:14:03.585Z,27.50
2022-09-06T19:16:32.619Z,27.48
2022-09-06T19:19:04.969Z,27.45
2022-09-06T19:21:36.729Z,27.41
2022-09-06T19:24:10.198Z,27.38
2022-09-06T19:26:40.265Z,27.34
2022-09-06T19:29:12.149Z,27.30
2022-09-06T19:31:40.678Z,27.20
2022-09-06T19:34:09.905Z,27.25
2022-09-06T19:36:37.752Z,27.21
2022-09-06T19:39:07.965Z,27.19
2022-09-06T19:41:39.014Z,27.17
2022-09-06T19:44:08.625Z,27.12
2022-09-06T19:46:37.179Z,27.10
2022-09-06T19:49:10.252Z,27.08
2022-09-06T19:51:39.591Z,27.04
2022-09-06T19:54:07.574Z,27.03
2022-09-06T19:56:37.600Z,26.96
2022-09-06T19:59:06.920Z,26.97
2022-09-06T20:01:36.995Z,26.94
2022-09-06T20:04:07.275Z,26.91
2022-09-06T20:06:37.220Z,26.90
2022-09-06T20:09:07.479Z,26.85
2022-09-06T20:11:37.793Z,26.83
2022-09-06T20:14:05.860Z,26.75
2022-09-06T20:16:36.143Z,26.78
2022-09-06T20:19:07.302Z,26.74
2022-09-06T20:21:36.876Z,26.70
2022-09-06T20:24:04.807Z,26.68
2022-09-06T20:26:32.635Z,26.66
2022-09-06T20:29:02.409Z,26.64
2022-09-06T20:31:31.853Z,26.61
2022-09-06T20:34:01.394Z,26.58
2022-09-06T20:36:30.088Z,26.56
2022-09-06T20:38:59.305Z,26.55
2022-09-06T20:41:28.779Z,26.54
2022-09-06T20:43:57.919Z,26.49
2022-09-06T20:46:27.374Z,26.49
2022-09-06T20:48:57.705Z,26.48
2022-09-06T20:51:25.966Z,26.40
2022-09-06T20:53:55.994Z,26.43
2022-09-06T20:56:26.856Z,26.42
2022-09-06T20:58:56.935Z,26.39
2022-09-06T21:01:26.475Z,26.33
2022-09-06T21:03:56.403Z,26.28
2022-09-06T21:06:26.088Z,26.22
2022-09-06T21:08:53.939Z,26.12
2022-09-06T21:11:22.095Z,26.03
2022-09-06T21:13:52.767Z,25.99
2022-09-06T21:16:24.679Z,25.90
2022-09-06T21:18:53.521Z,25.71
2022-09-06T21:21:22.204Z,25.51
2022-09-06T21:23:50.590Z,25.29
2022-09-06T21:26:19.118Z,25.17
2022-09-06T21:28:48.071Z,24.99
2022-09-06T21:31:19.285Z,24.90
2022-09-06T21:33:48.308Z,24.79
2022-09-06T21:36:18.850Z,24.73
2022-09-06T21:38:48.324Z,24.68
2022-09-06T21:41:18.412Z,24.63
2022-09-06T21:43:46.925Z,24.60
2022-09-06T21:46:17.913Z,24.57
2022-09-06T21:48:48.361Z,24.57
2022-09-06T21:51:18.562Z,24.55
2022-09-06T21:53:48.302Z,24.49
2022-09-06T21:56:18.978Z,24.47
2022-09-06T21:58:46.959Z,24.43
2022-09-06T22:01:15.094Z,24.43
2022-09-06T22:03:44.798Z,24.36
2022-09-06T22:06:14.969Z,24.38
2022-09-06T22:08:44.224Z,24.38
2022-09-06T22:11:14.187Z,24.37
2022-09-06T22:13:42.272Z,24.39
2022-09-06T22:16:11.784Z,24.38
2022-09-06T22:18:39.840Z,24.40
2022-09-06T22:21:10.845Z,24.44
2022-09-06T22:23:39.921Z,24.43
2022-09-06T22:26:09.737Z,24.44
2022-09-06T22:28:39.473Z,24.45
2022-09-06T22:31:08.113Z,24.48
2022-09-06T22:33:37.027Z,24.48
2022-09-06T22:36:06.687Z,24.47
2022-09-06T22:38:37.670Z,24.47
2022-09-06T22:41:06.618Z,24.44
2022-09-06T22:43:34.542Z,24.44
2022-09-06T22:46:07.034Z,24.44
2022-09-06T22:48:35.789Z,24.38
2022-09-06T22:51:06.082Z,24.37
2022-09-06T22:53:35.573Z,24.36
2022-09-06T22:56:04.062Z,24.29
2022-09-06T22:58:32.146Z,24.28
2022-09-06T23:01:07.785Z,24.28
2022-09-06T23:03:36.405Z,24.24
2022-09-06T23:06:04.692Z,24.24
2022-09-06T23:08:32.796Z,24.19
2022-09-06T23:11:05.846Z,24.18
2022-09-06T23:13:33.805Z,24.11
2022-09-06T23:16:04.669Z,24.12
2022-09-06T23:18:32.783Z,24.10
2022-09-06T23:21:05.212Z,24.10
2022-09-06T23:23:33.385Z,24.05
2022-09-06T23:26:07.094Z,24.03
2022-09-06T23:28:35.739Z,23.97
2022-09-06T23:31:04.864Z,23.98
2022-09-06T23:33:35.050Z,23.96
2022-09-06T23:36:03.698Z,23.94
2022-09-06T23:38:33.093Z,23.93
2022-09-06T23:41:01.170Z,23.88
2022-09-06T23:43:30.998Z,23.86
2022-09-06T23:45:59.410Z,23.84
2022-09-06T23:48:27.519Z,23.83
2022-09-06T23:50:55.339Z,23.82
2022-09-06T23:53:23.388Z,23.79
2022-09-06T23:55:51.621Z,23.74
2022-09-06T23:58:19.517Z,23.75
